createdAt,value
2023-04-16T00:00:30.821Z,3.60
2023-04-16T00:05:32.503Z,3.67
2023-04-16T00:10:35.637Z,3.70
2023-04-16T00:15:37.219Z,3.45
2023-04-16T00:20:38.932Z,3.30
2023-04-16T00:25:41.935Z,3.47
2023-04-16T00:30:43.594Z,3.75
2023-04-16T00:35:45.524Z,3.33
2023-04-16T00:40:48.530Z,3.85
2023-04-16T00:45:50.693Z,3.70
2023-04-16T00:50:52.392Z,3.42
2023-04-16T00:55:55.618Z,3.92
2023-04-16T01:00:57.191Z,4.30
2023-04-16T01:05:58.771Z,4.00
2023-04-16T01:11:01.989Z,4.30
2023-04-16T01:16:03.930Z,4.38
2023-04-16T01:21:07.328Z,4.13
2023-04-16T01:26:08.854Z,3.90
2023-04-16T01:31:10.393Z,4.10
2023-04-16T01:36:13.372Z,3.85
2023-04-16T01:41:20.201Z,3.42
2023-04-16T01:46:27.563Z,3.67
2023-04-16T01:51:30.494Z,3.03
2023-04-16T01:56:32.022Z,3.38
2023-04-16T02:01:33.567Z,3.80
2023-04-16T02:06:36.504Z,3.38
2023-04-16T02:11:38.129Z,2.67
2023-04-16T02:16:39.695Z,2.83
2023-04-16T02:21:42.620Z,3.30
2023-04-16T02:26:44.403Z,3.65
2023-04-16T02:31:49.016Z,3.90
2023-04-16T02:36:52.045Z,3.60
2023-04-16T02:41:53.718Z,4.15
2023-04-16T02:47:07.515Z,3.63
2023-04-16T02:52:10.392Z,4.00
2023-04-16T02:57:12.016Z,3.80
2023-04-16T03:02:13.613Z,3.60
2023-04-16T03:07:16.522Z,2.55
2023-04-16T03:12:18.102Z,2.80
2023-04-16T03:17:19.733Z,2.88
2023-04-16T03:22:22.790Z,2.58
2023-04-16T03:27:29.644Z,2.15
2023-04-16T03:32:31.244Z,1.87
2023-04-16T03:37:34.363Z,1.83
2023-04-16T03:42:35.906Z,1.60
2023-04-16T03:47:39.472Z,1.63
2023-04-16T03:52:42.434Z,2.03
2023-04-16T03:57:44.045Z,1.63
2023-04-16T04:02:45.818Z,1.40
2023-04-16T04:07:49.114Z,1.85
2023-04-16T04:12:50.808Z,1.70
2023-04-16T04:17:52.497Z,2.22
2023-04-16T04:22:55.418Z,1.98
2023-04-16T04:28:06.097Z,2.13
2023-04-16T04:33:07.652Z,2.00
2023-04-16T04:38:10.540Z,2.30
2023-04-16T04:43:12.191Z,2.40
2023-04-16T04:48:13.723Z,2.55
2023-04-16T04:53:16.707Z,1.75
2023-04-16T04:58:18.269Z,1.80
2023-04-16T05:03:21.588Z,1.65
2023-04-16T05:08:24.701Z,1.60
2023-04-16T05:13:26.255Z,1.60
2023-04-16T05:18:27.859Z,1.75
2023-04-16T05:23:33.569Z,1.67
2023-04-16T05:28:35.173Z,1.52
2023-04-16T05:33:36.758Z,1.50
2023-04-16T05:38:39.763Z,1.30
2023-04-16T05:43:41.369Z,1.30
2023-04-16T05:48:42.870Z,1.00
2023-04-16T05:53:45.789Z,0.93
2023-04-16T05:58:47.334Z,1.13
2023-04-16T06:03:49.447Z,0.63
2023-04-16T06:08:52.453Z,1.05
2023-04-16T06:13:54.060Z,1.20
2023-04-16T06:18:55.639Z,0.80
2023-04-16T06:23:58.558Z,1.20
2023-04-16T06:29:00.439Z,1.40
2023-04-16T06:34:01.980Z,1.40
2023-04-16T06:39:04.966Z,0.80
2023-04-16T06:44:06.555Z,1.70
2023-04-16T06:49:08.483Z,1.52
2023-04-16T06:54:11.601Z,1.30
2023-04-16T06:59:13.142Z,1.10
2023-04-16T07:04:14.797Z,1.88
2023-04-16T07:09:17.868Z,2.83
2023-04-16T07:14:19.624Z,3.00
2023-04-16T07:19:21.130Z,2.58
2023-04-16T07:24:24.010Z,1.70
2023-04-16T07:29:25.609Z,2.95
2023-04-16T07:34:27.176Z,2.53
2023-04-16T07:39:30.099Z,2.10
2023-04-16T07:44:31.674Z,2.47
2023-04-16T07:49:33.577Z,2.30
2023-04-16T07:54:36.454Z,2.08
2023-04-16T07:59:38.019Z,2.58
2023-04-16T08:04:39.854Z,2.85
2023-04-16T08:09:49.000Z,2.83
2023-04-16T08:14:50.610Z,3.42
2023-04-16T08:19:52.193Z,3.45
2023-04-16T08:24:55.105Z,3.10
2023-04-16T08:29:56.661Z,3.55
2023-04-16T08:34:58.274Z,3.55
2023-04-16T08:40:01.176Z,3.67
2023-04-16T08:45:07.490Z,3.17
2023-04-16T08:50:11.461Z,2.78
2023-04-16T08:55:16.221Z,3.10
2023-04-16T09:00:19.131Z,2.83
2023-04-16T09:05:22.020Z,2.97
2023-04-16T09:10:26.217Z,2.22
2023-04-16T09:15:27.846Z,2.80
2023-04-16T09:20:29.477Z,2.70
2023-04-16T09:25:34.770Z,2.50
2023-04-16T09:30:37.113Z,2.90
2023-04-16T09:35:45.609Z,2.40
2023-04-16T09:40:48.553Z,3.00
2023-04-16T09:45:51.007Z,2.88
2023-04-16T09:50:52.573Z,3.38
2023-04-16T09:55:57.736Z,3.45
2023-04-16T10:01:01.612Z,3.35
2023-04-16T10:06:08.226Z,3.65
2023-04-16T10:11:11.219Z,4.40
2023-04-16T10:16:13.016Z,3.88
2023-04-16T10:21:14.672Z,2.92
2023-04-16T10:26:18.089Z,3.60
2023-04-16T10:31:20.115Z,3.15
2023-04-16T10:36:25.026Z,3.20
2023-04-16T10:41:28.171Z,3.03
2023-04-16T10:46:31.804Z,3.08
2023-04-16T10:51:34.990Z,2.97
2023-04-16T10:56:38.358Z,2.33
2023-04-16T11:01:42.947Z,2.53
2023-04-16T11:07:00.507Z,2.53
2023-04-16T11:12:07.679Z,2.40
2023-04-16T11:17:09.884Z,2.72
2023-04-16T11:22:13.554Z,2.58
2023-04-16T11:27:16.456Z,3.00
2023-04-16T11:32:21.280Z,3.03
2023-04-16T11:37:31.992Z,3.20
2023-04-16T11:42:35.418Z,2.72
2023-04-16T11:47:43.731Z,2.38
2023-04-16T11:52:45.408Z,2.42
2023-04-16T11:57:48.854Z,2.97
2023-04-16T12:02:51.719Z,2.50
2023-04-16T12:07:53.412Z,2.30
2023-04-16T12:13:09.934Z,2.10
2023-04-16T12:18:11.511Z,2.38
2023-04-16T12:23:23.106Z,2.95
2023-04-16T12:28:30.520Z,2.20
2023-04-16T12:33:32.225Z,2.38
2023-04-16T12:38:33.847Z,2.53
2023-04-16T12:43:37.646Z,2.30
2023-04-16T12:48:39.183Z,2.10
2023-04-16T12:53:40.729Z,1.80
2023-04-16T12:58:43.563Z,2.00
2023-04-16T13:03:45.357Z,2.15
2023-04-16T13:08:47.101Z,1.80
2023-04-16T13:13:49.975Z,1.85
2023-04-16T13:18:51.535Z,2.10
2023-04-16T13:23:53.178Z,1.50
2023-04-16T13:28:56.092Z,1.80
2023-04-16T13:33:57.778Z,1.45
2023-04-16T13:38:59.397Z,1.27
2023-04-16T13:44:02.317Z,1.38
2023-04-16T13:49:03.915Z,1.50
2023-04-16T13:54:05.627Z,1.42
2023-04-16T13:59:08.782Z,1.75
2023-04-16T14:04:10.517Z,1.30
2023-04-16T14:09:12.263Z,1.70
2023-04-16T14:14:15.378Z,1.50
2023-04-16T14:19:16.961Z,1.60
2023-04-16T14:24:18.488Z,1.73
2023-04-16T14:29:21.350Z,2.05
2023-04-16T14:34:22.852Z,1.88
2023-04-16T14:39:24.521Z,1.80
2023-04-16T14:44:27.382Z,1.85
2023-04-16T14:49:28.942Z,1.73
2023-04-16T14:54:31.528Z,1.67
2023-04-16T14:59:34.470Z,1.90
2023-04-16T15:04:36.138Z,1.80
2023-04-16T15:09:37.683Z,1.92
2023-04-16T15:14:40.581Z,1.90
2023-04-16T15:19:42.159Z,2.28
2023-04-16T15:24:43.709Z,2.10
2023-04-16T15:29:46.620Z,1.73
2023-04-16T15:34:48.143Z,2.33
2023-04-16T15:39:49.716Z,2.05
2023-04-16T15:44:52.648Z,1.98
2023-04-16T15:49:54.212Z,2.00
2023-04-16T15:54:56.080Z,1.83
2023-04-16T16:00:06.991Z,1.60
2023-04-16T16:05:10.067Z,1.35
2023-04-16T16:10:12.334Z,2.08
2023-04-16T16:15:15.274Z,2.13
2023-04-16T16:20:16.857Z,2.40
2023-04-16T16:25:18.462Z,2.90
2023-04-16T16:30:21.432Z,2.40
2023-04-16T16:35:23.018Z,2.90
2023-04-16T16:40:24.837Z,2.80
2023-04-16T16:45:27.700Z,2.92
2023-04-16T16:50:31.133Z,3.78
2023-04-16T16:55:32.774Z,3.13
2023-04-16T17:00:35.744Z,3.70
2023-04-16T17:05:37.347Z,3.30
2023-04-16T17:10:38.902Z,2.55
2023-04-16T17:15:41.999Z,3.80
2023-04-16T17:20:43.572Z,2.83
2023-04-16T17:25:45.187Z,3.72
2023-04-16T17:30:51.426Z,4.03
2023-04-16T17:35:52.993Z,3.45
2023-04-16T17:40:54.524Z,4.05
2023-04-16T17:45:57.440Z,3.85
2023-04-16T17:50:59.014Z,3.20
2023-04-16T17:56:00.564Z,3.17
2023-04-16T18:01:03.680Z,2.90
2023-04-16T18:06:05.600Z,2.83
2023-04-16T18:11:07.376Z,2.75
2023-04-16T18:16:15.070Z,2.88
2023-04-16T18:26:20.946Z,3.30
2023-04-16T18:31:25.627Z,2.85
2023-04-16T18:36:27.254Z,2.70
2023-04-16T18:41:29.683Z,2.20
2023-04-16T18:46:32.784Z,3.17
2023-04-16T18:51:34.453Z,3.13
2023-04-16T18:56:36.016Z,3.63
2023-04-16T19:01:38.963Z,3.65
2023-04-16T19:06:40.555Z,2.88
2023-04-16T19:11:42.415Z,3.50
2023-04-16T19:16:45.425Z,4.40
2023-04-16T19:21:47.030Z,3.30
2023-04-16T19:26:48.593Z,4.18
2023-04-16T19:31:51.508Z,3.55
2023-04-16T19:36:53.139Z,3.00
2023-04-16T19:41:54.702Z,3.28
2023-04-16T19:46:57.667Z,2.88
2023-04-16T19:51:59.232Z,2.45
2023-04-16T19:57:00.831Z,4.30
2023-04-16T20:02:03.841Z,2.00
2023-04-16T20:07:05.392Z,2.67
2023-04-16T20:12:07.161Z,2.58
2023-04-16T20:17:10.318Z,4.18
2023-04-16T20:22:11.979Z,2.88
2023-04-16T20:27:13.699Z,2.88
2023-04-16T20:32:16.692Z,3.33
2023-04-16T20:37:18.266Z,4.00
2023-04-16T20:42:19.818Z,3.67
2023-04-16T20:47:22.737Z,2.83
2023-04-16T20:52:24.295Z,2.28
2023-04-16T20:57:25.897Z,3.90
2023-04-16T21:02:28.992Z,3.28
2023-04-16T21:07:30.822Z,4.82
2023-04-16T21:12:32.385Z,4.15
2023-04-16T21:17:35.311Z,3.67
2023-04-16T21:22:36.905Z,4.43
2023-04-16T21:27:38.456Z,3.67
2023-04-16T21:32:41.906Z,2.63
2023-04-16T21:37:43.535Z,4.55
2023-04-16T21:42:45.110Z,3.97
2023-04-16T21:47:48.159Z,3.47
2023-04-16T21:52:49.803Z,4.15
2023-04-16T21:57:51.753Z,5.53
2023-04-16T22:02:54.883Z,3.08
2023-04-16T22:07:56.580Z,6.03
2023-04-16T22:12:58.103Z,3.90
2023-04-16T22:18:01.037Z,3.03
2023-04-16T22:23:02.626Z,3.03
2023-04-16T22:28:04.191Z,3.97
2023-04-16T22:33:07.147Z,5.95
2023-04-16T22:38:08.757Z,6.53
2023-04-16T22:43:10.307Z,3.97
2023-04-16T22:48:13.237Z,3.03
2023-04-16T22:53:15.915Z,4.50
2023-04-16T22:58:17.452Z,2.95
2023-04-16T23:03:20.414Z,2.95
2023-04-16T23:08:22.020Z,3.88
2023-04-16T23:13:23.708Z,3.10
2023-04-16T23:18:26.635Z,3.42
2023-04-16T23:23:28.237Z,2.65
2023-04-16T23:28:29.809Z,3.25
2023-04-16T23:33:32.709Z,2.67
2023-04-16T23:38:34.290Z,2.55
2023-04-16T23:43:35.864Z,4.28
2023-04-16T23:48:38.744Z,5.90
2023-04-16T23:53:40.300Z,5.18
2023-04-16T23:58:41.878Z,5.18
